createdAt,value
2023-03-19T00:02:17.822Z,15.00
2023-03-19T00:04:47.840Z,14.80
2023-03-19T00:07:15.845Z,14.80
2023-03-19T00:09:43.285Z,14.90
2023-03-19T00:12:12.001Z,14.90
2023-03-19T00:14:39.223Z,14.80
2023-03-19T00:17:06.804Z,14.80
2023-03-19T00:19:33.716Z,14.70
2023-03-19T00:22:00.605Z,14.70
2023-03-19T00:24:28.881Z,14.70
2023-03-19T00:26:55.903Z,14.80
2023-03-19T00:29:23.268Z,14.80
2023-03-19T05:30:34.511Z,13.50
2023-03-19T05:33:02.623Z,13.60
2023-03-19T05:35:30.414Z,13.60
2023-03-19T05:37:57.366Z,13.60
2023-03-19T05:40:24.348Z,13.60
2023-03-19T05:42:52.366Z,13.70
2023-03-19T05:45:19.475Z,13.70
2023-03-19T05:47:47.401Z,13.60
2023-03-19T05:50:14.493Z,13.60
2023-03-19T05:52:42.077Z,13.60
2023-03-19T05:55:09.605Z,13.60
2023-03-19T05:57:36.662Z,13.50
2023-03-19T06:00:06.555Z,13.50
2023-03-19T06:02:34.544Z,13.50
2023-03-19T06:05:01.758Z,13.50
2023-03-19T06:07:28.658Z,13.50
2023-03-19T06:09:55.579Z,13.60
2023-03-19T06:12:23.692Z,13.60
2023-03-19T06:14:51.211Z,13.70
2023-03-19T06:17:18.216Z,13.60
2023-03-19T06:19:45.116Z,13.60
2023-03-19T06:22:12.380Z,13.60
2023-03-19T06:24:39.339Z,13.60
2023-03-19T06:27:06.220Z,13.60
2023-03-19T06:29:33.166Z,13.60
2023-03-19T06:32:00.402Z,13.60
2023-03-19T06:34:27.596Z,13.50
2023-03-19T06:36:54.551Z,13.50
2023-03-19T06:39:21.587Z,13.50
2023-03-19T06:41:48.643Z,13.50
2023-03-19T06:44:16.305Z,13.50
2023-03-19T06:46:43.262Z,13.40
2023-03-19T06:49:10.331Z,13.40
2023-03-19T06:51:37.258Z,13.40
2023-03-19T06:54:04.285Z,13.40
2023-03-19T06:56:31.239Z,13.40
2023-03-19T06:58:58.208Z,13.60
2023-03-19T07:01:25.247Z,13.40
2023-03-19T07:03:52.334Z,13.40
2023-03-19T07:06:19.291Z,13.40
2023-03-19T07:08:46.498Z,13.50
2023-03-19T07:11:13.958Z,13.50
2023-03-19T07:13:41.171Z,13.60
2023-03-19T07:16:08.805Z,13.70
2023-03-19T07:18:35.888Z,13.80
2023-03-19T07:21:02.929Z,13.90
2023-03-19T07:23:29.955Z,13.90
2023-03-19T07:25:56.894Z,13.90
2023-03-19T07:28:23.857Z,14.00
2023-03-19T07:30:54.029Z,13.80
2023-03-19T07:33:21.234Z,13.80
2023-03-19T07:35:48.660Z,13.80
2023-03-19T07:38:16.013Z,13.80
2023-03-19T07:40:51.405Z,13.80
2023-03-19T07:43:22.287Z,14.00
2023-03-19T07:45:49.273Z,13.80
2023-03-19T07:48:16.277Z,13.90
2023-03-19T07:50:43.270Z,13.90
2023-03-19T07:53:10.195Z,13.90
2023-03-19T07:55:38.466Z,13.90
2023-03-19T07:58:05.919Z,13.80
2023-03-19T08:00:33.038Z,13.80
2023-03-19T08:03:00.174Z,13.90
2023-03-19T08:05:27.253Z,13.90
2023-03-19T08:07:54.177Z,13.80
2023-03-19T08:10:21.930Z,13.90
2023-03-19T08:12:48.934Z,13.90
2023-03-19T08:15:15.932Z,14.00
2023-03-19T08:17:42.877Z,14.00
2023-03-19T08:20:11.217Z,14.10
2023-03-19T08:22:38.644Z,14.20
2023-03-19T08:25:06.733Z,14.30
2023-03-19T08:27:35.629Z,14.30
2023-03-19T08:30:07.211Z,14.30
2023-03-19T08:32:34.405Z,14.40
2023-03-19T08:35:01.809Z,14.40
2023-03-19T08:37:28.862Z,14.40
2023-03-19T08:39:55.894Z,14.50
2023-03-19T08:42:23.005Z,14.50
2023-03-19T08:44:50.146Z,14.50
2023-03-19T08:47:17.069Z,14.50
2023-03-19T08:49:44.023Z,14.60
2023-03-19T08:52:11.075Z,14.60
2023-03-19T08:54:38.075Z,14.70
2023-03-19T08:57:05.249Z,14.70
2023-03-19T08:59:34.186Z,14.70
2023-03-19T09:02:01.532Z,14.80
2023-03-19T09:04:29.025Z,14.80
2023-03-19T09:06:56.054Z,14.90
2023-03-19T09:09:24.709Z,15.00
2023-03-19T09:11:51.779Z,15.00
2023-03-19T09:14:20.474Z,15.10
2023-03-19T09:16:47.464Z,15.20
2023-03-19T09:19:14.505Z,15.20
2023-03-19T09:21:41.452Z,15.30
2023-03-19T09:24:08.764Z,15.30
2023-03-19T09:26:36.173Z,15.30
2023-03-19T09:29:03.777Z,15.40
2023-03-19T09:31:30.838Z,15.50
2023-03-19T09:33:58.090Z,15.50
2023-03-19T09:36:25.577Z,15.50
2023-03-19T09:38:52.535Z,15.60
2023-03-19T09:41:31.463Z,15.70
2023-03-19T09:44:01.429Z,15.70
2023-03-19T09:46:35.729Z,15.80
2023-03-19T09:49:09.978Z,15.80
2023-03-19T09:51:57.266Z,15.90
2023-03-19T09:54:53.412Z,15.90
2023-03-19T09:57:20.825Z,15.90
2023-03-19T09:59:48.225Z,15.80
2023-03-19T10:02:33.630Z,15.90
2023-03-19T10:05:05.555Z,15.90
2023-03-19T10:07:35.306Z,16.00
2023-03-19T10:10:22.244Z,16.10
2023-03-19T10:12:55.287Z,16.10
2023-03-19T10:15:26.495Z,16.10
2023-03-19T10:18:04.672Z,16.20
2023-03-19T10:20:54.719Z,16.20
2023-03-19T10:23:37.857Z,16.30
2023-03-19T10:26:06.001Z,16.30
2023-03-19T10:28:32.982Z,16.40
2023-03-19T10:31:18.798Z,16.60
2023-03-19T10:33:52.445Z,16.40
2023-03-19T10:36:20.786Z,16.50
2023-03-19T10:38:47.897Z,16.50
2023-03-19T10:41:14.854Z,16.50
2023-03-19T10:43:43.184Z,16.50
2023-03-19T10:46:13.873Z,16.50
2023-03-19T10:48:47.561Z,16.60
2023-03-19T10:51:16.049Z,16.60
2023-03-19T10:53:42.931Z,16.70
2023-03-19T10:56:18.977Z,16.70
2023-03-19T10:59:00.284Z,16.70
2023-03-19T11:01:28.591Z,16.60
2023-03-19T11:03:57.175Z,16.60
2023-03-19T11:06:37.029Z,16.70
2023-03-19T11:09:10.631Z,16.80
2023-03-19T11:12:09.813Z,16.90
2023-03-19T11:14:38.494Z,16.80
2023-03-19T11:17:05.714Z,16.90
2023-03-19T11:19:34.570Z,17.00
2023-03-19T11:22:01.454Z,17.10
2023-03-19T11:24:31.180Z,17.30
2023-03-19T11:26:58.574Z,17.20
2023-03-19T11:29:27.010Z,17.20
2023-03-19T11:32:21.660Z,17.30
2023-03-19T11:34:53.848Z,17.30
2023-03-19T11:37:20.933Z,17.40
2023-03-19T11:40:06.537Z,17.40
2023-03-19T11:42:33.474Z,17.50
2023-03-19T11:45:03.242Z,17.70
2023-03-19T11:47:43.655Z,17.60
2023-03-19T11:50:19.340Z,17.60
2023-03-19T11:53:04.501Z,17.70
2023-03-19T11:55:39.299Z,17.70
2023-03-19T11:58:24.189Z,17.80
2023-03-19T12:00:51.429Z,17.70
2023-03-19T12:03:21.976Z,17.80
2023-03-19T12:06:06.137Z,17.80
2023-03-19T12:08:39.400Z,17.90
2023-03-19T12:11:09.149Z,17.90
2023-03-19T12:13:54.753Z,17.80
2023-03-19T12:16:22.111Z,17.90
2023-03-19T12:19:01.230Z,18.00
2023-03-19T12:21:47.128Z,18.00
2023-03-19T12:24:38.019Z,17.90
2023-03-19T12:27:15.207Z,17.70
2023-03-19T12:29:45.122Z,17.70
2023-03-19T12:32:27.195Z,17.70
2023-03-19T12:34:58.940Z,17.70
2023-03-19T12:37:26.060Z,17.80
2023-03-19T12:40:07.689Z,17.90
2023-03-19T12:42:37.528Z,17.80
2023-03-19T12:45:12.650Z,17.80
2023-03-19T12:47:40.668Z,17.80
2023-03-19T12:50:09.857Z,17.80
2023-03-19T12:52:40.432Z,17.80
2023-03-19T12:55:10.867Z,17.80
2023-03-19T12:57:42.732Z,17.90
2023-03-19T13:00:13.981Z,17.90
2023-03-19T13:02:47.504Z,17.80
2023-03-19T13:05:14.672Z,17.80
2023-03-19T13:07:50.598Z,17.90
2023-03-19T13:10:17.486Z,17.80
2023-03-19T13:12:44.696Z,17.80
2023-03-19T13:15:11.653Z,17.80
2023-03-19T13:17:53.651Z,17.80
2023-03-19T13:20:26.345Z,17.70
2023-03-19T13:22:55.680Z,17.50
2023-03-19T13:25:25.501Z,17.40
2023-03-19T13:27:56.255Z,17.40
2023-03-19T13:30:23.927Z,17.40
2023-03-19T13:33:04.217Z,17.40
2023-03-19T13:35:38.627Z,17.40
2023-03-19T13:38:17.787Z,17.30
2023-03-19T13:40:49.597Z,17.20
2023-03-19T13:43:29.132Z,17.20
2023-03-19T13:46:25.297Z,17.20
2023-03-19T13:48:52.977Z,17.20
2023-03-19T13:51:20.001Z,17.20
2023-03-19T13:53:52.863Z,17.20
2023-03-19T13:56:29.606Z,17.30
2023-03-19T13:59:15.562Z,17.30
2023-03-19T14:01:47.142Z,17.30
2023-03-19T14:04:23.123Z,17.40
2023-03-19T14:07:09.271Z,17.30
2023-03-19T14:09:42.100Z,17.20
2023-03-19T14:12:17.845Z,17.30
2023-03-19T14:14:53.626Z,17.40
2023-03-19T14:17:23.401Z,17.50
2023-03-19T14:19:52.304Z,17.60
2023-03-19T14:22:21.520Z,17.70
2023-03-19T14:24:58.059Z,17.70
2023-03-19T14:27:32.596Z,17.60
2023-03-19T14:30:02.991Z,17.60
2023-03-19T14:32:36.560Z,17.50
2023-03-19T14:35:04.983Z,17.50
2023-03-19T14:37:37.991Z,17.50
2023-03-19T14:40:12.876Z,17.50
2023-03-19T14:42:47.324Z,17.50
2023-03-19T14:45:32.912Z,17.50
2023-03-19T14:48:24.104Z,17.40
2023-03-19T14:50:58.637Z,17.40
2023-03-19T14:53:32.464Z,17.40
2023-03-19T14:56:02.564Z,17.50
2023-03-19T14:58:29.510Z,17.60
2023-03-19T15:00:56.477Z,17.60
2023-03-19T15:03:31.454Z,17.70
2023-03-19T15:06:00.033Z,17.70
2023-03-19T15:08:27.389Z,17.80
2023-03-19T15:10:57.190Z,17.70
2023-03-19T15:13:32.708Z,17.70
2023-03-19T15:16:18.243Z,17.60
2023-03-19T15:18:45.230Z,17.60
2023-03-19T15:21:12.457Z,17.60
2023-03-19T15:23:41.058Z,17.50
2023-03-19T15:26:11.632Z,17.60
2023-03-19T15:28:46.852Z,17.60
2023-03-19T15:31:31.216Z,17.70
2023-03-19T15:34:01.582Z,17.70
2023-03-19T15:36:30.227Z,17.60
2023-03-19T15:38:57.227Z,17.60
2023-03-19T15:41:25.668Z,17.50
2023-03-19T15:43:53.009Z,17.60
2023-03-19T15:46:23.364Z,17.50
2023-03-19T15:48:57.262Z,17.50
2023-03-19T15:51:26.122Z,17.50
2023-03-19T15:53:53.736Z,17.40
2023-03-19T15:56:20.939Z,17.60
2023-03-19T15:58:50.825Z,17.20
2023-03-19T16:01:19.603Z,17.20
2023-03-19T16:03:51.511Z,17.10
2023-03-19T16:06:18.502Z,17.00
2023-03-19T16:08:46.654Z,17.00
2023-03-19T16:11:26.248Z,17.00
2023-03-19T16:14:00.870Z,17.00
2023-03-19T16:16:29.363Z,17.00
2023-03-19T16:18:57.055Z,16.90
2023-03-19T16:21:25.595Z,16.90
2023-03-19T16:24:00.525Z,17.00
2023-03-19T16:26:30.322Z,16.80
2023-03-19T16:29:04.840Z,16.70
2023-03-19T16:31:33.822Z,16.60
2023-03-19T16:34:00.964Z,16.50
2023-03-19T16:36:30.158Z,16.50
2023-03-19T16:39:15.721Z,16.60
2023-03-19T16:41:42.716Z,16.60
2023-03-19T16:44:17.606Z,16.20
2023-03-19T16:46:44.780Z,15.90
2023-03-19T16:49:11.781Z,15.70
2023-03-19T16:51:38.943Z,15.70
2023-03-19T16:54:06.291Z,15.50
2023-03-19T16:56:33.292Z,15.10
2023-03-19T16:59:02.751Z,14.80
2023-03-19T17:01:29.970Z,14.60
2023-03-19T17:03:57.040Z,14.40
2023-03-19T17:06:24.044Z,14.40
2023-03-19T17:08:51.015Z,14.40
2023-03-19T17:11:28.035Z,14.20
2023-03-19T17:13:56.918Z,14.20
2023-03-19T17:16:24.232Z,14.10
2023-03-19T17:18:51.224Z,14.00
2023-03-19T17:21:21.377Z,14.00
2023-03-19T17:23:48.489Z,14.00
2023-03-19T17:26:19.580Z,13.90
2023-03-19T17:28:46.894Z,13.80
2023-03-19T17:31:21.491Z,13.80
2023-03-19T17:33:48.638Z,13.80
2023-03-19T17:36:15.664Z,13.90
2023-03-19T17:38:42.571Z,13.90
2023-03-19T17:41:13.849Z,14.00
2023-03-19T17:43:40.909Z,13.90
2023-03-19T17:46:09.418Z,13.60
2023-03-19T17:48:36.384Z,13.80
2023-03-19T17:51:03.424Z,13.80
2023-03-19T17:53:30.547Z,13.80
2023-03-19T17:55:57.629Z,13.70
2023-03-19T17:58:24.863Z,13.90
2023-03-19T18:00:52.395Z,14.20
2023-03-19T18:03:20.872Z,14.10
2023-03-19T18:05:50.193Z,14.20
2023-03-19T18:08:18.881Z,14.20
2023-03-19T18:10:46.104Z,14.50
2023-03-19T18:13:13.149Z,14.60
2023-03-19T18:15:41.308Z,14.70
2023-03-19T18:18:12.815Z,14.70
2023-03-19T18:20:39.842Z,14.80
2023-03-19T18:23:06.963Z,14.80
2023-03-19T18:25:35.556Z,14.80
2023-03-19T18:28:03.343Z,14.80
2023-03-19T18:30:32.473Z,14.80
2023-03-19T18:33:01.396Z,14.80
2023-03-19T18:35:29.710Z,14.80
2023-03-19T18:37:57.510Z,14.80
2023-03-19T18:40:25.950Z,14.70
2023-03-19T18:42:53.238Z,14.70
2023-03-19T18:45:20.272Z,14.70
2023-03-19T18:47:48.235Z,14.70
2023-03-19T18:50:15.244Z,14.60
2023-03-19T18:52:42.631Z,14.60
2023-03-19T18:55:10.924Z,14.60
2023-03-19T18:57:39.975Z,14.50
2023-03-19T19:00:13.907Z,14.50
2023-03-19T19:02:40.865Z,14.40
2023-03-19T19:05:13.473Z,14.30
2023-03-19T19:07:40.599Z,14.20
2023-03-19T19:10:08.922Z,14.10
2023-03-19T19:12:38.493Z,13.90
2023-03-19T19:15:05.873Z,13.90
2023-03-19T19:17:35.006Z,13.90
2023-03-19T19:20:01.955Z,14.00
2023-03-19T19:22:29.746Z,14.10
2023-03-19T19:24:56.908Z,14.20
2023-03-19T19:27:26.522Z,14.20
2023-03-19T19:29:53.560Z,14.30
2023-03-19T19:32:24.505Z,14.30
2023-03-19T19:34:51.943Z,14.30
2023-03-19T19:37:19.371Z,14.40
2023-03-19T19:39:46.561Z,14.40
2023-03-19T19:42:15.009Z,14.40
2023-03-19T19:44:42.445Z,14.40
2023-03-19T19:47:13.380Z,14.40
2023-03-19T19:49:40.504Z,14.30
2023-03-19T19:52:14.375Z,14.50
2023-03-19T19:54:41.312Z,14.30
2023-03-19T19:57:27.326Z,14.30
2023-03-19T19:59:56.256Z,14.30
2023-03-19T20:02:31.018Z,14.30
2023-03-19T20:04:58.005Z,14.30
2023-03-19T20:07:25.044Z,14.30
2023-03-19T20:09:52.132Z,14.30
2023-03-19T20:12:23.581Z,14.40
2023-03-19T20:14:51.128Z,14.30
2023-03-19T20:17:19.214Z,14.40
2023-03-19T20:19:46.359Z,14.30
2023-03-19T20:22:13.360Z,14.30
2023-03-19T20:24:40.566Z,14.30
2023-03-19T20:27:13.296Z,14.30
2023-03-19T20:29:40.450Z,14.30
2023-03-19T20:32:22.838Z,14.30
2023-03-19T20:34:49.742Z,14.30
2023-03-19T20:37:16.857Z,14.30
2023-03-19T20:39:44.380Z,14.20
2023-03-19T20:42:14.300Z,14.30
2023-03-19T20:44:42.235Z,14.20
2023-03-19T20:47:16.900Z,14.20
2023-03-19T20:49:44.068Z,14.20
2023-03-19T20:52:12.032Z,14.20
2023-03-19T20:54:41.790Z,14.20
2023-03-19T20:57:27.275Z,14.20
2023-03-19T20:59:54.217Z,14.20
2023-03-19T21:02:22.036Z,14.40
2023-03-19T21:04:49.030Z,14.20
2023-03-19T21:07:29.856Z,14.20
2023-03-19T21:09:57.639Z,14.30
2023-03-19T21:12:29.282Z,14.30
2023-03-19T21:14:59.960Z,14.30
2023-03-19T21:17:28.453Z,14.30
2023-03-19T21:19:55.530Z,14.20
2023-03-19T21:22:24.516Z,14.30
2023-03-19T21:24:52.686Z,14.20
2023-03-19T21:27:21.770Z,14.30
2023-03-19T21:29:49.244Z,14.20
2023-03-19T21:32:19.699Z,14.20
2023-03-19T21:34:48.858Z,14.20
2023-03-19T21:37:16.470Z,14.30
2023-03-19T21:39:43.760Z,14.30
2023-03-19T21:42:17.570Z,14.20
2023-03-19T21:44:45.828Z,14.20
2023-03-19T21:47:13.643Z,14.20
2023-03-19T21:49:40.860Z,14.20
2023-03-19T21:52:11.877Z,14.20
2023-03-19T21:54:40.217Z,14.20
2023-03-19T21:57:11.704Z,14.10
2023-03-19T21:59:40.622Z,14.10
2023-03-19T22:02:23.415Z,14.00
2023-03-19T22:04:50.364Z,14.00
2023-03-19T22:07:18.206Z,14.00
2023-03-19T22:09:45.299Z,14.00
2023-03-19T22:12:22.910Z,14.00
2023-03-19T22:14:49.817Z,14.00
2023-03-19T22:17:16.818Z,14.00
2023-03-19T22:19:43.873Z,14.00
2023-03-19T22:22:11.378Z,14.00
2023-03-19T22:24:38.293Z,14.10
2023-03-19T22:27:05.569Z,14.20
2023-03-19T22:29:32.793Z,13.90
2023-03-19T22:31:59.804Z,13.80
2023-03-19T22:34:27.794Z,13.70
2023-03-19T22:36:54.701Z,13.70
2023-03-19T22:39:21.601Z,13.60
2023-03-19T22:41:49.144Z,13.60
2023-03-19T22:44:22.817Z,13.60
2023-03-19T22:46:49.925Z,13.50
2023-03-19T22:49:17.177Z,13.50
2023-03-19T22:51:44.120Z,13.40
2023-03-19T22:54:11.649Z,13.40
2023-03-19T22:56:38.659Z,13.40
2023-03-19T22:59:05.603Z,13.50
2023-03-19T23:01:35.482Z,13.30
2023-03-19T23:04:14.052Z,13.30
2023-03-19T23:06:41.020Z,13.40
2023-03-19T23:09:11.046Z,13.20
2023-03-19T23:11:39.376Z,13.20
2023-03-19T23:14:10.329Z,13.20
2023-03-19T23:16:43.367Z,13.20
2023-03-19T23:19:12.985Z,13.10
2023-03-19T23:21:39.874Z,13.10
2023-03-19T23:24:11.495Z,13.10
2023-03-19T23:26:39.149Z,13.00
2023-03-19T23:29:06.538Z,12.90
2023-03-19T23:31:34.557Z,12.90
2023-03-19T23:34:01.617Z,12.90
2023-03-19T23:36:28.592Z,12.80
2023-03-19T23:38:56.390Z,12.70
2023-03-19T23:41:26.621Z,12.70
2023-03-19T23:43:54.560Z,12.60
2023-03-19T23:46:22.005Z,12.70
2023-03-19T23:48:49.011Z,12.70
2023-03-19T23:51:16.329Z,12.70
2023-03-19T23:53:43.492Z,12.70
2023-03-19T23:56:24.004Z,12.70
2023-03-19T23:58:51.702Z,12.70
